createdAt,value
2023-02-02T00:01:20.357Z,4.25
2023-02-02T00:03:51.253Z,4.30
2023-02-02T00:06:19.452Z,2.97
2023-02-02T00:08:46.362Z,4.03
2023-02-02T00:11:13.141Z,2.05
2023-02-02T00:13:40.739Z,3.10
2023-02-02T00:16:26.039Z,3.13
2023-02-02T00:18:57.914Z,3.35
2023-02-02T00:21:25.103Z,2.83
2023-02-02T00:23:51.618Z,3.67
2023-02-02T00:26:18.801Z,3.92
2023-02-02T00:28:45.631Z,2.80
2023-02-02T00:31:12.156Z,3.83
2023-02-02T00:33:38.687Z,4.18
2023-02-02T00:36:05.627Z,3.92
2023-02-02T00:38:32.529Z,3.72
2023-02-02T00:40:58.999Z,3.50
2023-02-02T00:43:25.483Z,3.30
2023-02-02T00:45:54.025Z,3.80
2023-02-02T00:48:20.487Z,3.67
2023-02-02T00:50:46.974Z,4.38
2023-02-02T00:53:16.035Z,3.92
2023-02-02T00:55:42.518Z,3.90
2023-02-02T00:58:09.017Z,4.00
2023-02-02T01:00:35.919Z,3.78
2023-02-02T01:03:04.451Z,3.40
2023-02-02T01:05:32.020Z,3.88
2023-02-02T01:07:58.485Z,3.85
2023-02-02T01:10:25.285Z,3.28
2023-02-02T01:12:51.925Z,3.30
2023-02-02T01:15:21.187Z,3.33
2023-02-02T01:17:47.686Z,2.63
2023-02-02T01:20:19.857Z,3.47
2023-02-02T01:22:53.057Z,4.75
2023-02-02T01:25:23.427Z,4.28
2023-02-02T01:27:50.106Z,4.18
2023-02-02T01:30:16.625Z,3.80
2023-02-02T01:32:43.187Z,3.08
2023-02-02T01:35:10.255Z,3.15
2023-02-02T01:37:39.822Z,4.22
2023-02-02T01:40:07.347Z,3.10
2023-02-02T01:42:33.834Z,3.00
2023-02-02T01:45:06.465Z,3.47
2023-02-02T01:47:44.129Z,2.47
2023-02-02T01:50:13.209Z,3.85
2023-02-02T01:52:41.017Z,2.55
2023-02-02T01:55:12.812Z,3.50
2023-02-02T01:57:47.520Z,4.03
2023-02-02T02:00:15.657Z,3.53
2023-02-02T02:02:48.485Z,2.58
2023-02-02T02:05:26.515Z,3.17
2023-02-02T02:07:56.671Z,3.30
2023-02-02T02:10:23.428Z,3.50
2023-02-02T02:12:50.143Z,3.13
2023-02-02T02:15:35.143Z,3.25
2023-02-02T02:18:40.752Z,2.85
2023-02-02T02:22:07.669Z,4.20
2023-02-02T02:25:01.787Z,4.80
2023-02-02T02:27:44.147Z,3.38
2023-02-02T02:30:29.217Z,4.75
2023-02-02T02:33:03.186Z,3.78
2023-02-02T02:36:27.876Z,2.70
2023-02-02T02:39:12.791Z,3.45
2023-02-02T02:41:45.252Z,3.70
2023-02-02T02:44:16.058Z,3.47
2023-02-02T02:46:43.400Z,3.83
2023-02-02T02:49:11.887Z,3.47
2023-02-02T02:51:49.147Z,3.47
2023-02-02T02:54:49.754Z,3.85
2023-02-02T02:57:22.375Z,3.60
2023-02-02T02:59:57.044Z,4.15
2023-02-02T03:03:00.266Z,3.50
2023-02-02T03:05:37.027Z,4.18
2023-02-02T03:08:22.513Z,2.60
2023-02-02T03:10:49.317Z,3.97
2023-02-02T03:13:17.027Z,3.72
2023-02-02T03:15:45.088Z,3.75
2023-02-02T03:18:13.872Z,3.03
2023-02-02T03:20:40.390Z,4.32
2023-02-02T03:23:06.885Z,3.88
2023-02-02T03:25:33.586Z,3.97
2023-02-02T03:28:00.679Z,3.80
2023-02-02T03:30:27.586Z,4.00
2023-02-02T03:32:54.258Z,3.55
2023-02-02T03:35:20.897Z,4.32
2023-02-02T03:37:48.057Z,3.72
2023-02-02T03:40:15.297Z,3.90
2023-02-02T03:42:41.795Z,3.70
2023-02-02T03:45:08.828Z,4.03
2023-02-02T03:47:35.388Z,4.10
2023-02-02T03:50:01.879Z,4.47
2023-02-02T03:52:28.396Z,3.28
2023-02-02T03:54:54.844Z,3.80
2023-02-02T03:57:21.280Z,4.63
2023-02-02T03:59:47.812Z,3.30
2023-02-02T04:02:14.276Z,3.90
2023-02-02T04:04:40.856Z,3.53
2023-02-02T04:07:07.433Z,3.58
2023-02-02T04:09:33.971Z,3.92
2023-02-02T04:12:00.473Z,4.15
2023-02-02T04:14:26.981Z,4.13
2023-02-02T04:16:53.498Z,3.90
2023-02-02T04:19:20.014Z,4.00
2023-02-02T04:21:46.541Z,4.13
2023-02-02T04:24:14.216Z,4.53
2023-02-02T04:26:41.536Z,4.63
2023-02-02T04:29:08.296Z,4.15
2023-02-02T04:31:37.552Z,4.53
2023-02-02T04:34:05.019Z,3.20
2023-02-02T04:36:31.562Z,4.07
2023-02-02T04:38:58.106Z,4.03
2023-02-02T04:41:24.884Z,4.47
2023-02-02T04:43:51.830Z,2.63
2023-02-02T04:46:18.469Z,4.22
2023-02-02T04:48:44.987Z,3.65
2023-02-02T04:51:14.452Z,3.53
2023-02-02T04:53:42.624Z,3.53
2023-02-02T04:56:13.285Z,3.97
2023-02-02T04:58:40.050Z,2.95
2023-02-02T05:01:17.785Z,4.18
2023-02-02T05:03:45.192Z,4.88
2023-02-02T05:06:12.788Z,3.95
2023-02-02T05:08:43.057Z,3.30
2023-02-02T05:11:11.793Z,4.38
2023-02-02T05:13:38.513Z,3.33
2023-02-02T05:16:05.543Z,4.60
2023-02-02T05:18:32.247Z,4.25
2023-02-02T05:21:03.310Z,3.33
2023-02-02T05:23:30.462Z,3.83
2023-02-02T05:25:57.523Z,4.50
2023-02-02T05:28:24.727Z,3.95
2023-02-02T05:30:51.892Z,3.88
2023-02-02T05:33:19.695Z,4.13
2023-02-02T05:35:47.948Z,3.55
2023-02-02T05:38:15.210Z,3.95
2023-02-02T05:40:42.012Z,3.33
2023-02-02T05:43:08.504Z,4.22
2023-02-02T05:45:35.145Z,4.57
2023-02-02T05:48:01.640Z,5.13
2023-02-02T05:50:28.190Z,3.72
2023-02-02T05:52:54.710Z,4.18
2023-02-02T05:55:21.344Z,4.38
2023-02-02T05:57:47.882Z,5.30
2023-02-02T06:00:14.757Z,3.67
2023-02-02T06:02:41.303Z,3.80
2023-02-02T06:05:08.036Z,3.65
2023-02-02T06:07:34.555Z,3.42
2023-02-02T06:10:01.016Z,3.70
2023-02-02T06:12:27.519Z,4.57
2023-02-02T06:14:53.971Z,3.78
2023-02-02T06:17:23.130Z,2.70
2023-02-02T06:19:49.564Z,4.05
2023-02-02T06:22:16.102Z,4.35
2023-02-02T06:24:42.569Z,4.20
2023-02-02T06:27:12.592Z,4.00
2023-02-02T06:29:39.079Z,3.85
2023-02-02T06:32:05.573Z,4.38
2023-02-02T06:34:32.065Z,4.32
2023-02-02T06:36:58.585Z,4.80
2023-02-02T06:39:25.097Z,3.45
2023-02-02T06:41:52.097Z,4.53
2023-02-02T06:44:21.692Z,3.78
2023-02-02T06:46:50.645Z,5.63
2023-02-02T06:49:17.201Z,4.35
2023-02-02T06:51:43.746Z,4.28
2023-02-02T06:54:10.241Z,4.03
2023-02-02T06:56:36.719Z,5.05
2023-02-02T06:59:03.481Z,4.68
2023-02-02T07:01:30.050Z,4.85
2023-02-02T07:03:56.636Z,4.07
2023-02-02T07:06:26.417Z,4.78
2023-02-02T07:09:01.040Z,4.47
2023-02-02T07:11:30.663Z,3.45
2023-02-02T07:13:57.544Z,3.88
2023-02-02T07:16:24.008Z,4.82
2023-02-02T07:18:50.597Z,4.00
2023-02-02T07:21:25.360Z,4.03
2023-02-02T07:23:51.827Z,4.70
2023-02-02T07:26:19.989Z,4.10
2023-02-02T07:28:46.697Z,3.53
2023-02-02T07:31:19.250Z,3.58
2023-02-02T07:33:47.114Z,4.35
2023-02-02T07:36:16.891Z,4.43
2023-02-02T07:38:45.124Z,4.70
2023-02-02T07:41:11.982Z,4.32
2023-02-02T07:43:39.203Z,3.25
2023-02-02T07:46:08.309Z,3.40
2023-02-02T07:48:35.224Z,3.80
2023-02-02T07:51:06.715Z,4.75
2023-02-02T07:53:33.449Z,4.75
2023-02-02T07:56:36.514Z,4.40
2023-02-02T07:59:04.294Z,4.38
2023-02-02T08:01:30.871Z,4.95
2023-02-02T08:04:00.511Z,3.50
2023-02-02T08:06:33.632Z,4.15
2023-02-02T08:09:01.630Z,4.53
2023-02-02T08:11:28.575Z,4.28
2023-02-02T08:14:00.087Z,3.38
2023-02-02T08:16:27.768Z,4.03
2023-02-02T08:18:54.817Z,4.10
2023-02-02T08:21:22.117Z,4.95
2023-02-02T08:23:48.926Z,4.43
2023-02-02T08:26:33.717Z,5.35
2023-02-02T08:29:03.227Z,4.75
2023-02-02T08:31:35.292Z,4.18
2023-02-02T08:34:02.141Z,4.15
2023-02-02T08:36:29.999Z,3.47
2023-02-02T08:39:02.889Z,4.55
2023-02-02T08:41:30.896Z,4.05
2023-02-02T08:43:57.423Z,4.65
2023-02-02T08:46:24.144Z,4.03
2023-02-02T08:48:50.715Z,4.75
2023-02-02T08:51:19.524Z,5.07
2023-02-02T08:53:49.539Z,4.25
2023-02-02T08:56:18.706Z,3.88
2023-02-02T08:58:50.297Z,4.72
2023-02-02T09:01:25.667Z,4.38
2023-02-02T09:03:56.973Z,4.50
2023-02-02T09:06:29.039Z,5.20
2023-02-02T09:08:55.526Z,4.38
2023-02-02T09:11:23.073Z,4.50
2023-02-02T09:13:55.406Z,4.80
2023-02-02T09:16:22.639Z,5.25
2023-02-02T09:18:49.125Z,6.05
2023-02-02T09:21:19.804Z,4.70
2023-02-02T09:23:47.472Z,4.07
2023-02-02T09:26:19.843Z,4.78
2023-02-02T09:28:49.723Z,5.20
2023-02-02T09:31:16.543Z,5.10
2023-02-02T09:33:43.885Z,4.55
2023-02-02T09:36:28.789Z,5.07
2023-02-02T09:38:55.285Z,4.53
2023-02-02T09:41:36.984Z,5.00
2023-02-02T09:44:12.574Z,4.68
2023-02-02T09:47:17.577Z,4.57
2023-02-02T09:49:54.378Z,5.03
2023-02-02T09:52:29.693Z,4.03
2023-02-02T09:55:03.303Z,3.67
2023-02-02T09:57:37.772Z,4.60
2023-02-02T10:00:06.848Z,4.57
2023-02-02T10:02:40.028Z,5.50
2023-02-02T10:05:15.573Z,5.95
2023-02-02T10:07:46.325Z,5.28
2023-02-02T10:10:22.756Z,4.55
2023-02-02T10:12:57.707Z,4.47
2023-02-02T10:15:40.760Z,4.20
2023-02-02T10:18:13.221Z,2.80
2023-02-02T10:20:45.650Z,6.00
2023-02-02T10:23:34.424Z,7.75
2023-02-02T10:26:03.522Z,3.78
2023-02-02T10:28:42.534Z,3.90
2023-02-02T10:31:41.502Z,3.45
2023-02-02T10:34:17.160Z,3.40
2023-02-02T10:36:46.538Z,4.20
2023-02-02T10:39:26.547Z,3.45
2023-02-02T10:42:11.297Z,3.42
2023-02-02T10:44:47.655Z,3.38
2023-02-02T10:47:22.248Z,4.15
2023-02-02T10:50:02.232Z,3.65
2023-02-02T10:52:34.192Z,3.08
2023-02-02T10:57:57.327Z,3.80
2023-02-02T11:00:35.320Z,3.53
2023-02-02T11:03:04.726Z,3.58
2023-02-02T11:05:50.316Z,3.53
2023-02-02T11:08:20.731Z,3.47
2023-02-02T11:10:52.021Z,3.53
2023-02-02T11:13:50.055Z,3.42
2023-02-02T11:16:16.643Z,3.42
2023-02-02T11:18:44.584Z,3.92
2023-02-02T11:21:35.112Z,4.32
2023-02-02T11:24:29.270Z,3.13
2023-02-02T11:26:59.623Z,3.05
2023-02-02T11:29:47.901Z,3.80
2023-02-02T11:32:35.159Z,2.90
2023-02-02T11:35:04.725Z,4.00
2023-02-02T11:37:32.947Z,4.45
2023-02-02T11:40:28.361Z,3.20
2023-02-02T11:42:57.260Z,3.85
2023-02-02T11:45:41.979Z,3.63
2023-02-02T11:48:15.449Z,3.60
2023-02-02T11:50:57.074Z,4.03
2023-02-02T11:53:32.848Z,3.70
2023-02-02T11:56:04.146Z,3.83
2023-02-02T11:58:55.980Z,3.75
2023-02-02T12:01:29.374Z,3.97
2023-02-02T12:04:01.828Z,3.40
2023-02-02T12:06:38.346Z,3.88
2023-02-02T12:09:17.721Z,3.35
2023-02-02T12:12:05.288Z,3.78
2023-02-02T12:14:50.153Z,3.50
2023-02-02T12:17:32.952Z,3.30
2023-02-02T12:20:27.975Z,3.58
2023-02-02T12:23:16.105Z,3.30
2023-02-02T12:26:02.418Z,3.70
2023-02-02T12:28:44.093Z,4.13
2023-02-02T12:31:13.658Z,8.27
2023-02-02T12:33:43.220Z,4.18
2023-02-02T12:36:24.321Z,4.55
2023-02-02T12:39:18.729Z,4.75
2023-02-02T12:42:19.420Z,4.57
2023-02-02T12:45:07.425Z,3.60
2023-02-02T12:47:55.692Z,4.03
2023-02-02T12:50:43.482Z,3.40
2023-02-02T12:53:13.316Z,3.95
2023-02-02T12:55:55.701Z,3.10
2023-02-02T12:58:34.536Z,4.55
2023-02-02T13:01:14.038Z,3.17
2023-02-02T13:03:49.336Z,3.55
2023-02-02T13:06:46.899Z,3.35
2023-02-02T13:09:31.847Z,3.95
2023-02-02T13:12:08.440Z,3.70
2023-02-02T13:14:45.436Z,3.97
2023-02-02T13:17:30.016Z,3.75
2023-02-02T13:20:03.226Z,2.92
2023-02-02T13:22:34.690Z,3.67
2023-02-02T13:25:05.004Z,3.47
2023-02-02T13:27:32.830Z,4.00
2023-02-02T13:30:13.733Z,4.68
2023-02-02T13:32:45.267Z,2.90
2023-02-02T13:35:20.346Z,3.35
2023-02-02T13:38:01.466Z,3.38
2023-02-02T13:40:33.466Z,3.60
2023-02-02T13:43:06.170Z,3.55
2023-02-02T13:46:05.147Z,3.75
2023-02-02T13:48:44.006Z,4.22
2023-02-02T13:51:32.072Z,3.38
2023-02-02T13:54:07.665Z,3.65
2023-02-02T13:56:53.991Z,4.30
2023-02-02T13:59:49.640Z,5.05
2023-02-02T14:02:29.960Z,4.30
2023-02-02T14:04:59.909Z,3.80
2023-02-02T14:07:33.397Z,4.32
2023-02-02T14:10:00.217Z,4.07
2023-02-02T14:12:33.006Z,3.78
2023-02-02T14:15:00.466Z,4.20
2023-02-02T14:17:26.862Z,3.80
2023-02-02T14:19:55.817Z,3.97
2023-02-02T14:22:54.463Z,4.72
2023-02-02T14:25:29.947Z,4.03
2023-02-02T14:27:59.275Z,4.70
2023-02-02T14:30:32.731Z,3.70
2023-02-02T14:33:23.140Z,4.43
2023-02-02T14:35:49.583Z,4.32
2023-02-02T14:38:22.177Z,3.65
2023-02-02T14:41:05.230Z,3.80
2023-02-02T14:43:50.967Z,5.25
2023-02-02T14:46:38.436Z,4.38
2023-02-02T14:49:04.879Z,4.68
2023-02-02T14:51:34.905Z,5.00
2023-02-02T14:54:08.389Z,4.25
2023-02-02T14:56:49.924Z,4.88
2023-02-02T14:59:20.271Z,4.63
2023-02-02T15:01:59.406Z,4.78
2023-02-02T15:04:27.559Z,5.22
2023-02-02T15:06:54.664Z,4.07
2023-02-02T15:09:23.799Z,3.90
2023-02-02T15:12:01.065Z,3.45
2023-02-02T15:14:50.570Z,3.47
2023-02-02T15:17:50.093Z,3.15
2023-02-02T15:20:20.788Z,3.95
2023-02-02T15:22:56.871Z,4.85
2023-02-02T15:25:42.056Z,4.03
2023-02-02T15:28:11.532Z,3.55
2023-02-02T15:30:43.908Z,4.43
2023-02-02T15:33:29.668Z,4.82
2023-02-02T15:36:00.034Z,4.40
2023-02-02T15:38:34.715Z,4.05
2023-02-02T15:41:21.390Z,4.47
2023-02-02T15:43:48.136Z,4.15
2023-02-02T15:46:24.245Z,4.07
2023-02-02T15:49:33.283Z,3.78
2023-02-02T15:52:10.469Z,3.90
2023-02-02T15:54:40.229Z,4.28
2023-02-02T15:57:47.978Z,3.13
2023-02-02T16:00:43.773Z,4.40
2023-02-02T16:03:19.531Z,4.13
2023-02-02T16:05:54.215Z,6.38
2023-02-02T16:08:29.760Z,6.65
2023-02-02T16:11:06.082Z,6.05
2023-02-02T16:13:36.146Z,5.03
2023-02-02T16:16:07.744Z,4.38
2023-02-02T16:18:35.624Z,4.75
2023-02-02T16:21:06.919Z,4.57
2023-02-02T16:23:37.081Z,4.05
2023-02-02T16:26:06.411Z,4.75
2023-02-02T16:28:34.089Z,4.82
2023-02-02T16:31:02.101Z,4.82
2023-02-02T16:33:29.949Z,4.30
2023-02-02T16:35:57.201Z,4.50
2023-02-02T16:38:26.483Z,5.03
2023-02-02T16:41:04.759Z,4.53
2023-02-02T16:43:31.503Z,5.50
2023-02-02T16:46:01.201Z,5.22
2023-02-02T16:48:36.641Z,5.65
2023-02-02T16:51:15.315Z,6.60
2023-02-02T16:53:45.605Z,6.97
2023-02-02T16:56:43.272Z,5.65
2023-02-02T16:59:16.289Z,4.35
2023-02-02T17:01:49.739Z,4.30
2023-02-02T17:04:31.833Z,4.50
2023-02-02T17:09:37.935Z,4.57
2023-02-02T17:12:32.611Z,4.55
2023-02-02T17:15:05.648Z,4.88
2023-02-02T17:17:32.214Z,4.63
2023-02-02T17:19:58.800Z,5.50
2023-02-02T17:22:27.761Z,6.60
2023-02-02T17:24:54.581Z,6.88
2023-02-02T17:27:34.613Z,7.85
2023-02-02T17:30:02.723Z,8.75
2023-02-02T17:32:29.202Z,8.95
2023-02-02T17:34:55.893Z,7.70
2023-02-02T17:37:22.447Z,6.15
2023-02-02T17:39:50.668Z,5.30
2023-02-02T17:42:27.983Z,4.82
2023-02-02T17:44:54.523Z,4.97
2023-02-02T17:47:21.058Z,4.35
2023-02-02T17:49:47.562Z,5.45
2023-02-02T17:52:14.173Z,5.15
2023-02-02T17:54:40.687Z,4.72
2023-02-02T17:57:07.195Z,4.32
2023-02-02T17:59:36.418Z,4.47
2023-02-02T18:02:02.943Z,5.15
2023-02-02T18:04:29.530Z,5.45
2023-02-02T18:06:56.017Z,5.88
2023-02-02T18:09:22.551Z,4.32
2023-02-02T18:11:49.820Z,4.55
2023-02-02T18:14:16.448Z,4.90
2023-02-02T18:16:42.929Z,5.32
2023-02-02T18:19:10.343Z,5.40
2023-02-02T18:21:36.878Z,5.00
2023-02-02T18:24:03.717Z,4.03
2023-02-02T18:26:31.534Z,4.43
2023-02-02T18:28:59.208Z,5.40
2023-02-02T18:31:27.087Z,5.05
2023-02-02T18:33:54.404Z,4.60
2023-02-02T18:36:21.817Z,4.60
2023-02-02T18:38:49.153Z,4.00
2023-02-02T18:41:17.344Z,4.07
2023-02-02T18:43:45.471Z,3.70
2023-02-02T18:46:13.869Z,5.18
2023-02-02T18:48:41.174Z,5.13
2023-02-02T18:51:18.782Z,4.20
2023-02-02T18:53:46.911Z,4.30
2023-02-02T18:56:15.156Z,3.83
2023-02-02T18:58:42.235Z,3.97
2023-02-02T19:01:16.856Z,4.07
2023-02-02T19:03:48.466Z,5.28
2023-02-02T19:06:34.026Z,6.72
2023-02-02T19:09:00.525Z,5.45
2023-02-02T19:11:36.734Z,5.50
2023-02-02T19:14:13.741Z,6.22
2023-02-02T19:16:40.733Z,5.60
2023-02-02T19:19:15.945Z,5.50
2023-02-02T19:21:43.207Z,4.63
2023-02-02T19:24:13.728Z,5.03
2023-02-02T19:26:49.372Z,5.50
2023-02-02T19:29:28.653Z,8.32
2023-02-02T19:32:06.020Z,7.80
2023-02-02T19:34:33.508Z,6.15
2023-02-02T19:37:11.924Z,5.90
2023-02-02T19:39:38.511Z,6.30
2023-02-02T19:42:11.373Z,6.60
2023-02-02T19:44:40.552Z,6.55
2023-02-02T19:47:27.697Z,6.22
2023-02-02T19:49:56.927Z,6.65
2023-02-02T19:52:25.689Z,8.57
2023-02-02T19:54:53.747Z,8.43
2023-02-02T19:57:32.961Z,6.55
2023-02-02T20:00:11.354Z,5.63
2023-02-02T20:02:52.016Z,5.50
2023-02-02T20:05:24.635Z,6.00
2023-02-02T20:08:00.644Z,6.07
2023-02-02T20:10:39.588Z,3.95
2023-02-02T20:13:20.293Z,4.13
2023-02-02T20:15:48.960Z,6.47
2023-02-02T20:18:26.517Z,6.63
2023-02-02T20:20:55.715Z,6.05
2023-02-02T20:23:27.656Z,8.00
2023-02-02T20:28:54.568Z,10.63
2023-02-02T20:31:24.778Z,10.82
2023-02-02T20:33:56.049Z,10.00
2023-02-02T20:36:42.723Z,7.82
2023-02-02T20:39:22.017Z,7.60
2023-02-02T20:41:48.884Z,6.60
2023-02-02T20:44:15.448Z,8.45
2023-02-02T20:46:41.917Z,7.13
2023-02-02T20:49:08.663Z,7.07
2023-02-02T20:51:35.148Z,5.57
2023-02-02T20:54:01.787Z,6.20
2023-02-02T20:56:28.265Z,5.90
2023-02-02T20:58:57.560Z,6.25
2023-02-02T21:01:25.284Z,2.50
2023-02-02T21:03:51.874Z,1.42
2023-02-02T21:06:18.453Z,1.20
2023-02-02T21:08:54.947Z,1.00
2023-02-02T21:11:21.449Z,3.10
2023-02-02T21:13:55.168Z,3.08
2023-02-02T21:16:22.471Z,1.40
2023-02-02T21:18:49.086Z,1.15
2023-02-02T21:21:19.404Z,1.13
2023-02-02T21:23:52.677Z,0.95
2023-02-02T21:26:27.201Z,0.98
2023-02-02T21:28:56.535Z,0.80
2023-02-02T21:31:23.626Z,0.80
2023-02-02T21:33:50.700Z,0.90
2023-02-02T21:36:28.174Z,9.00
2023-02-02T21:39:01.673Z,5.03
2023-02-02T21:41:30.842Z,1.10
2023-02-02T21:43:58.604Z,1.20
2023-02-02T21:46:33.514Z,0.90
2023-02-02T21:49:00.810Z,1.00
2023-02-02T21:51:35.873Z,0.80
2023-02-02T21:54:17.942Z,0.80
2023-02-02T21:59:22.284Z,0.80
2023-02-02T22:01:50.677Z,0.70
2023-02-02T22:04:22.215Z,0.70
2023-02-02T22:06:51.723Z,0.65
2023-02-02T22:09:24.331Z,0.77
2023-02-02T22:11:55.273Z,0.80
2023-02-02T22:14:38.429Z,0.60
2023-02-02T22:17:14.229Z,0.60
2023-02-02T22:19:43.373Z,0.65
2023-02-02T22:22:22.829Z,0.80
2023-02-02T22:25:31.379Z,0.70
2023-02-02T22:28:01.387Z,0.80
2023-02-02T22:30:35.597Z,0.93
2023-02-02T22:33:02.686Z,0.90
2023-02-02T22:35:29.514Z,0.98
2023-02-02T22:37:58.392Z,1.13
2023-02-02T22:40:25.693Z,1.20
2023-02-02T22:42:54.430Z,0.98
2023-02-02T22:45:21.669Z,1.10
2023-02-02T22:47:48.868Z,1.20
2023-02-02T22:50:20.699Z,1.30
2023-02-02T22:52:47.417Z,1.70
2023-02-02T22:55:18.659Z,1.67
2023-02-02T22:57:47.733Z,1.73
2023-02-02T23:00:20.142Z,2.05
2023-02-02T23:02:46.726Z,2.30
2023-02-02T23:05:16.450Z,2.50
2023-02-02T23:07:49.875Z,2.83
2023-02-02T23:10:26.110Z,2.90
2023-02-02T23:12:54.948Z,3.00
2023-02-02T23:15:24.719Z,2.65
2023-02-02T23:17:56.804Z,2.90
2023-02-02T23:20:23.749Z,2.40
2023-02-02T23:22:52.966Z,3.00
2023-02-02T23:25:19.910Z,2.45
2023-02-02T23:27:46.481Z,2.88
2023-02-02T23:30:14.550Z,2.60
2023-02-02T23:32:41.540Z,2.70
2023-02-02T23:35:10.564Z,2.65
2023-02-02T23:37:40.027Z,2.53
2023-02-02T23:40:07.188Z,2.70
2023-02-02T23:42:36.121Z,2.58
2023-02-02T23:45:04.043Z,2.78
2023-02-02T23:47:32.788Z,2.90
2023-02-02T23:49:59.442Z,3.40
2023-02-02T23:52:25.998Z,3.22
2023-02-02T23:54:52.968Z,2.97
2023-02-02T23:57:20.143Z,2.97
2023-02-02T23:59:46.627Z,2.85
